createdAt,value
2022-10-09T00:02:26.371Z,8.93
2022-10-09T00:07:29.940Z,8.00
2022-10-09T00:12:33.630Z,8.77
2022-10-09T00:17:37.094Z,8.25
2022-10-09T00:22:40.978Z,7.50
2022-10-09T00:27:44.412Z,7.15
2022-10-09T00:32:48.296Z,6.40
2022-10-09T00:37:52.186Z,7.23
2022-10-09T00:42:59.461Z,7.80
2022-10-09T00:48:07.785Z,7.00
2022-10-09T00:53:16.874Z,8.82
2022-10-09T00:58:21.174Z,16.13
2022-10-09T01:03:24.670Z,13.98
2022-10-09T01:08:56.007Z,11.85
2022-10-09T01:14:20.454Z,9.65
2022-10-09T01:19:42.906Z,8.43
2022-10-09T01:24:55.945Z,7.78
2022-10-09T01:30:13.433Z,7.60
2022-10-09T01:35:18.623Z,7.63
2022-10-09T01:40:23.495Z,6.50
2022-10-09T01:45:41.001Z,6.70
2022-10-09T01:50:47.107Z,6.90
2022-10-09T01:56:21.982Z,7.30
2022-10-09T02:01:28.179Z,7.47
2022-10-09T02:06:32.399Z,8.00
2022-10-09T02:11:37.516Z,8.38
2022-10-09T02:16:45.586Z,8.00
2022-10-09T02:22:01.787Z,8.60
2022-10-09T02:27:05.843Z,8.02
2022-10-09T02:32:09.743Z,8.80
2022-10-09T02:42:18.063Z,9.82
2022-10-09T02:47:21.791Z,9.47
2022-10-09T02:52:27.375Z,9.50
2022-10-09T02:57:31.230Z,10.27
2022-10-09T03:02:34.977Z,10.87
2022-10-09T03:07:38.664Z,10.57
2022-10-09T03:12:42.393Z,9.45
2022-10-09T03:17:45.895Z,9.77
2022-10-09T03:22:49.616Z,9.50
2022-10-09T03:33:37.936Z,8.55
2022-10-09T03:44:07.402Z,8.40
2022-10-09T03:49:11.215Z,7.67
2022-10-09T03:54:14.962Z,7.97
2022-10-09T03:59:20.298Z,7.77
2022-10-09T04:04:29.119Z,7.90
2022-10-09T04:09:32.707Z,7.72
2022-10-09T04:14:37.120Z,7.25
2022-10-09T04:19:41.109Z,7.82
2022-10-09T04:25:17.166Z,7.55
2022-10-09T04:30:21.042Z,6.77
2022-10-09T04:35:24.769Z,6.80
2022-10-09T04:40:28.939Z,6.30
2022-10-09T04:45:32.686Z,7.23
2022-10-09T04:50:39.716Z,6.53
2022-10-09T04:55:44.706Z,6.65
2022-10-09T05:00:48.960Z,6.57
2022-10-09T05:05:52.548Z,6.13
2022-10-09T05:11:03.794Z,6.45
2022-10-09T05:16:12.164Z,6.15
2022-10-09T05:21:16.759Z,5.72
2022-10-09T05:36:33.182Z,5.82
2022-10-09T05:41:37.136Z,6.03
2022-10-09T05:46:40.717Z,7.20
2022-10-09T05:51:50.706Z,6.07
2022-10-09T05:56:56.501Z,5.40
2022-10-09T06:02:00.313Z,6.35
2022-10-09T06:07:04.058Z,5.77
2022-10-09T06:12:07.786Z,5.50
2022-10-09T06:17:11.304Z,5.67
2022-10-09T06:22:24.862Z,5.80
2022-10-09T06:27:29.065Z,5.43
2022-10-09T06:32:33.943Z,5.75
2022-10-09T06:37:41.443Z,5.30
2022-10-09T06:42:45.073Z,6.05
2022-10-09T06:47:48.695Z,6.03
2022-10-09T06:52:52.334Z,5.70
2022-10-09T06:57:55.993Z,5.90
2022-10-09T07:02:59.948Z,5.63
2022-10-09T07:08:03.647Z,5.43
2022-10-09T07:13:07.314Z,5.67
2022-10-09T07:18:10.988Z,5.67
2022-10-09T07:23:18.974Z,5.20
2022-10-09T07:28:22.641Z,4.97
2022-10-09T07:33:26.232Z,5.20
2022-10-09T07:38:39.949Z,5.05
2022-10-09T07:43:44.393Z,5.23
2022-10-09T07:53:52.549Z,5.28
2022-10-09T07:58:59.466Z,5.70
2022-10-09T08:04:04.378Z,5.80
2022-10-09T08:09:10.085Z,5.50
2022-10-09T08:14:18.986Z,5.65
2022-10-09T08:19:23.073Z,5.47
2022-10-09T08:24:27.198Z,5.50
2022-10-09T08:29:30.617Z,5.18
2022-10-09T08:34:34.273Z,5.10
2022-10-09T08:39:37.239Z,4.93
2022-10-09T08:44:43.449Z,5.60
2022-10-09T08:49:58.215Z,4.93
2022-10-09T08:55:09.204Z,5.53
2022-10-09T09:00:23.476Z,4.55
2022-10-09T09:05:36.213Z,4.45
2022-10-09T09:10:49.536Z,4.77
2022-10-09T09:15:59.546Z,4.75
2022-10-09T09:21:17.221Z,4.07
2022-10-09T09:26:22.608Z,3.70
2022-10-09T09:31:38.188Z,3.95
2022-10-09T09:37:00.154Z,3.50
2022-10-09T09:42:14.366Z,3.40
2022-10-09T09:47:24.672Z,3.70
2022-10-09T09:52:31.499Z,3.55
2022-10-09T09:57:40.886Z,3.85
2022-10-09T10:02:47.178Z,3.70
2022-10-09T10:07:53.492Z,3.55
2022-10-09T10:12:59.550Z,3.70
2022-10-09T10:18:04.568Z,3.15
2022-10-09T10:24:04.409Z,3.10
2022-10-09T10:29:10.980Z,3.95
2022-10-09T10:35:06.967Z,3.85
2022-10-09T10:40:33.161Z,4.35
2022-10-09T10:45:44.740Z,4.65
2022-10-09T10:50:57.150Z,4.40
2022-10-09T10:56:07.031Z,4.32
2022-10-09T11:01:31.437Z,4.38
2022-10-09T11:06:42.788Z,4.60
2022-10-09T11:11:48.385Z,4.25
2022-10-09T11:17:03.175Z,4.45
2022-10-09T11:22:55.043Z,4.53
2022-10-09T11:28:23.001Z,5.10
2022-10-09T11:33:42.417Z,4.60
2022-10-09T11:38:49.878Z,4.90
2022-10-09T11:44:09.211Z,5.00
2022-10-09T11:49:40.427Z,4.75
2022-10-09T11:54:43.357Z,4.45
2022-10-09T11:59:46.297Z,4.47
2022-10-09T12:04:56.270Z,3.80
2022-10-09T12:10:09.996Z,4.38
2022-10-09T12:15:28.313Z,4.00
2022-10-09T12:20:31.577Z,3.88
2022-10-09T12:25:44.889Z,4.07
2022-10-09T12:30:51.285Z,4.03
2022-10-09T12:36:14.285Z,3.67
2022-10-09T12:41:31.052Z,3.80
2022-10-09T12:46:40.128Z,4.20
2022-10-09T12:51:43.059Z,3.95
2022-10-09T12:56:48.032Z,3.92
2022-10-09T13:01:56.731Z,3.88
2022-10-09T13:07:06.791Z,3.80
2022-10-09T13:12:24.537Z,3.65
2022-10-09T13:17:40.130Z,3.65
2022-10-09T13:22:57.168Z,3.65
2022-10-09T13:28:00.173Z,3.72
2022-10-09T13:33:04.554Z,3.70
2022-10-09T13:38:07.535Z,3.60
2022-10-09T13:43:18.636Z,3.65
2022-10-09T13:48:22.020Z,3.65
2022-10-09T13:53:24.957Z,3.25
2022-10-09T13:58:28.116Z,3.63
2022-10-09T14:03:30.875Z,3.67
2022-10-09T14:08:33.775Z,3.53
2022-10-09T14:13:46.682Z,3.47
2022-10-09T14:18:49.348Z,3.60
2022-10-09T14:24:00.553Z,3.13
2022-10-09T14:29:04.666Z,3.38
2022-10-09T14:34:07.970Z,3.28
2022-10-09T14:39:11.166Z,3.10
2022-10-09T14:44:14.381Z,3.13
2022-10-09T14:49:17.417Z,2.85
2022-10-09T14:54:20.272Z,3.15
2022-10-09T14:59:23.043Z,3.00
2022-10-09T15:04:27.167Z,3.35
2022-10-09T15:09:29.934Z,3.25
2022-10-09T15:14:32.940Z,3.08
2022-10-09T15:19:35.704Z,3.22
2022-10-09T15:24:38.669Z,3.30
2022-10-09T15:29:41.730Z,3.20
2022-10-09T15:34:44.399Z,2.97
2022-10-09T15:39:47.271Z,3.03
2022-10-09T15:44:49.943Z,3.58
2022-10-09T15:49:53.542Z,3.40
2022-10-09T15:54:56.251Z,3.57
2022-10-09T16:00:10.805Z,4.93
2022-10-09T16:05:13.579Z,4.70
2022-10-09T16:10:16.368Z,3.55
2022-10-09T16:15:19.130Z,5.07
2022-10-09T16:20:22.165Z,3.78
2022-10-09T16:25:25.055Z,3.10
2022-10-09T16:30:29.783Z,2.85
2022-10-09T16:35:32.467Z,4.30
2022-10-09T16:41:00.755Z,3.53
2022-10-09T16:46:12.421Z,4.10
2022-10-09T16:51:18.725Z,3.42
2022-10-09T16:56:24.701Z,3.10
2022-10-09T17:01:28.771Z,8.65
2022-10-09T17:06:44.955Z,7.28
2022-10-09T17:11:48.490Z,7.47
2022-10-09T17:16:51.374Z,7.15
2022-10-09T17:21:54.989Z,6.30
2022-10-09T17:26:57.993Z,6.47
2022-10-09T17:32:00.750Z,3.00
2022-10-09T17:37:03.660Z,3.40
2022-10-09T17:42:06.573Z,5.00
2022-10-09T17:47:09.450Z,4.50
2022-10-09T17:52:12.255Z,5.38
2022-10-09T17:57:15.182Z,3.80
2022-10-09T18:02:18.310Z,3.35
2022-10-09T18:07:21.077Z,4.97
2022-10-09T18:12:23.903Z,17.98
2022-10-09T18:17:31.054Z,4.33
2022-10-09T18:22:36.820Z,4.57
2022-10-09T18:27:40.148Z,10.52
2022-10-09T18:39:42.210Z,5.50
2022-10-09T18:44:45.347Z,6.97
2022-10-09T18:49:53.386Z,4.00
2022-10-09T18:54:57.173Z,3.40
2022-10-09T19:00:01.839Z,2.70
2022-10-09T19:10:08.796Z,2.53
2022-10-09T19:15:12.433Z,2.50
2022-10-09T19:20:15.573Z,2.65
2022-10-09T19:25:26.472Z,2.80
2022-10-09T19:30:33.405Z,2.53
2022-10-09T19:42:33.251Z,3.00
2022-10-09T19:47:36.204Z,2.38
2022-10-09T19:52:49.712Z,2.50
2022-10-09T19:57:53.840Z,2.40
2022-10-09T20:02:57.044Z,2.30
2022-10-09T20:13:06.495Z,2.28
2022-10-09T20:18:09.251Z,3.30
2022-10-09T20:23:11.985Z,2.30
2022-10-09T20:28:16.784Z,2.60
2022-10-09T20:33:19.582Z,2.90
2022-10-09T20:38:25.812Z,2.65
2022-10-09T20:43:28.760Z,2.88
2022-10-09T20:48:31.466Z,2.60
2022-10-09T21:00:30.167Z,2.33
2022-10-09T21:05:33.059Z,2.70
2022-10-09T21:10:36.611Z,2.58
2022-10-09T21:22:27.057Z,2.55
2022-10-09T21:27:29.910Z,2.60
2022-10-09T21:32:34.946Z,2.75
2022-10-09T21:37:38.242Z,2.47
2022-10-09T21:42:41.026Z,2.58
2022-10-09T21:47:43.921Z,2.45
2022-10-09T21:52:49.250Z,2.85
2022-10-09T21:57:52.878Z,3.08
2022-10-09T22:09:56.167Z,2.70
2022-10-09T22:14:59.022Z,2.75
2022-10-09T22:25:07.301Z,3.00
2022-10-09T22:30:10.611Z,2.97
2022-10-09T22:35:13.314Z,3.08
2022-10-09T22:40:16.235Z,2.75
2022-10-09T22:45:18.942Z,2.92
2022-10-09T22:50:21.656Z,3.00
2022-10-09T22:55:24.606Z,3.20
2022-10-09T23:00:27.924Z,3.25
2022-10-09T23:12:24.331Z,3.15
2022-10-09T23:17:27.034Z,3.13
2022-10-09T23:22:29.908Z,2.90
2022-10-09T23:27:32.653Z,3.20
2022-10-09T23:32:35.458Z,2.88
2022-10-09T23:37:38.273Z,2.83
2022-10-09T23:42:41.035Z,3.22
2022-10-09T23:47:43.719Z,3.20
2022-10-09T23:52:46.389Z,2.97
2022-10-09T23:57:51.313Z,3.00
